sensor_id;sensor_type;location;lat;lon;timestamp;pressure;altitude;pressure_sealevel;temperature;humidity
4528;BME280;62320;51.520;6.818;2022-12-08T00:05:57;100628.63;;;4.47;100.00
4528;BME280;62320;51.520;6.818;2022-12-08T00:16:17;100614.88;;;4.44;100.00
4528;BME280;62320;51.520;6.818;2022-12-08T00:26:18;100600.31;;;4.41;100.00
4528;BME280;62320;51.520;6.818;2022-12-08T00:36:19;100603.56;;;4.34;100.00
4528;BME280;62320;51.520;6.818;2022-12-08T00:46:21;100594.19;;;4.33;100.00
4528;BME280;62320;51.520;6.818;2022-12-08T00:56:23;100584.75;;;4.32;100.00
4528;BME280;62320;51.520;6.818;2022-12-08T01:06:24;100571.91;;;4.29;100.00
4528;BME280;62320;51.520;6.818;2022-12-08T01:16:28;100564.28;;;4.32;100.00
4528;BME280;62320;51.520;6.818;2022-12-08T01:26:29;100564.16;;;4.26;100.00
4528;BME280;62320;51.520;6.818;2022-12-08T01:36:32;100564.97;;;4.23;100.00
4528;BME280;62320;51.520;6.818;2022-12-08T01:46:41;100559.03;;;4.24;100.00
4528;BME280;62320;51.520;6.818;2022-12-08T02:07:22;100552.25;;;4.28;100.00
4528;BME280;62320;51.520;6.818;2022-12-08T02:17:58;100533.44;;;4.24;100.00
4528;BME280;62320;51.520;6.818;2022-12-08T02:28:20;100527.47;;;4.25;100.00
4528;BME280;62320;51.520;6.818;2022-12-08T02:48:58;100496.84;;;4.30;100.00
4528;BME280;62320;51.520;6.818;2022-12-08T03:09:37;100472.22;;;4.35;100.00
4528;BME280;62320;51.520;6.818;2022-12-08T03:19:41;100464.53;;;4.33;100.00
4528;BME280;62320;51.520;6.818;2022-12-08T03:29:44;100443.28;;;4.39;100.00
4528;BME280;62320;51.520;6.818;2022-12-08T03:39:46;100440.72;;;4.38;100.00
4528;BME280;62320;51.520;6.818;2022-12-08T03:49:48;100427.06;;;4.39;100.00
4528;BME280;62320;51.520;6.818;2022-12-08T03:59:49;100410.09;;;4.42;100.00
4528;BME280;62320;51.520;6.818;2022-12-08T04:09:50;100405.78;;;4.41;100.00
4528;BME280;62320;51.520;6.818;2022-12-08T04:19:52;100398.09;;;4.41;100.00
4528;BME280;62320;51.520;6.818;2022-12-08T04:29:53;100386.25;;;4.45;100.00
4528;BME280;62320;51.520;6.818;2022-12-08T04:39:54;100381.22;;;4.49;100.00
4528;BME280;62320;51.520;6.818;2022-12-08T04:49:56;100376.91;;;4.47;100.00
4528;BME280;62320;51.520;6.818;2022-12-08T04:59:57;100370.09;;;4.47;100.00
4528;BME280;62320;51.520;6.818;2022-12-08T05:09:58;100372.66;;;4.49;100.00
4528;BME280;62320;51.520;6.818;2022-12-08T05:20:00;100369.22;;;4.48;100.00
4528;BME280;62320;51.520;6.818;2022-12-08T05:30:02;100364.97;;;4.47;100.00
4528;BME280;62320;51.520;6.818;2022-12-08T05:40:04;100359.00;;;4.48;100.00
4528;BME280;62320;51.520;6.818;2022-12-08T05:50:07;100350.44;;;4.48;100.00
4528;BME280;62320;51.520;6.818;2022-12-08T06:00:08;100347.88;;;4.46;100.00
4528;BME280;62320;51.520;6.818;2022-12-08T06:10:11;100326.44;;;4.41;100.00
4528;BME280;62320;51.520;6.818;2022-12-08T06:20:12;100339.28;;;4.43;100.00
4528;BME280;62320;51.520;6.818;2022-12-08T06:30:14;100335.00;;;4.42;100.00
4528;BME280;62320;51.520;6.818;2022-12-08T06:40:16;100341.00;;;4.44;100.00
4528;BME280;62320;51.520;6.818;2022-12-08T06:50:17;100334.25;;;4.47;100.00
4528;BME280;62320;51.520;6.818;2022-12-08T07:00:19;100329.88;;;4.43;100.00
4528;BME280;62320;51.520;6.818;2022-12-08T07:10:20;100341.78;;;4.40;100.00
4528;BME280;62320;51.520;6.818;2022-12-08T07:20:21;100352.00;;;4.38;100.00
4528;BME280;62320;51.520;6.818;2022-12-08T07:30:23;100348.50;;;4.34;100.00
4528;BME280;62320;51.520;6.818;2022-12-08T07:40:24;100348.50;;;4.33;100.00
4528;BME280;62320;51.520;6.818;2022-12-08T07:50:25;100343.34;;;4.31;100.00
4528;BME280;62320;51.520;6.818;2022-12-08T08:00:27;100347.53;;;4.28;100.00
4528;BME280;62320;51.520;6.818;2022-12-08T08:10:29;100338.88;;;4.21;100.00
4528;BME280;62320;51.520;6.818;2022-12-08T08:20:30;100338.91;;;4.23;100.00
4528;BME280;62320;51.520;6.818;2022-12-08T08:30:31;100341.47;;;4.23;100.00
4528;BME280;62320;51.520;6.818;2022-12-08T08:40:33;100344.91;;;4.25;100.00
4528;BME280;62320;51.520;6.818;2022-12-08T08:50:34;100342.34;;;4.23;100.00
4528;BME280;62320;51.520;6.818;2022-12-08T09:00:38;100352.56;;;4.22;100.00
4528;BME280;62320;51.520;6.818;2022-12-08T09:10:39;100360.22;;;4.22;100.00
4528;BME280;62320;51.520;6.818;2022-12-08T09:20:41;100361.00;;;4.18;100.00
4528;BME280;62320;51.520;6.818;2022-12-08T09:30:42;100357.66;;;4.22;100.00
4528;BME280;62320;51.520;6.818;2022-12-08T09:40:52;100356.78;;;4.20;100.00
4528;BME280;62320;51.520;6.818;2022-12-08T09:50:55;100358.50;;;4.21;100.00
4528;BME280;62320;51.520;6.818;2022-12-08T10:00:57;100356.88;;;4.26;100.00
4528;BME280;62320;51.520;6.818;2022-12-08T10:11:06;100360.25;;;4.23;100.00
4528;BME280;62320;51.520;6.818;2022-12-08T10:21:16;100346.59;;;4.23;100.00
4528;BME280;62320;51.520;6.818;2022-12-08T10:31:21;100341.44;;;4.20;100.00
4528;BME280;62320;51.520;6.818;2022-12-08T10:41:23;100331.94;;;4.16;100.00
4528;BME280;62320;51.520;6.818;2022-12-08T10:51:34;100331.16;;;4.18;100.00
4528;BME280;62320;51.520;6.818;2022-12-08T11:01:38;100327.84;;;4.22;100.00
4528;BME280;62320;51.520;6.818;2022-12-08T11:22:45;100298.44;;;4.49;100.00
4528;BME280;62320;51.520;6.818;2022-12-08T11:32:57;100297.53;;;4.47;100.00
4528;BME280;62320;51.520;6.818;2022-12-08T11:53:49;100282.91;;;4.40;100.00
4528;BME280;62320;51.520;6.818;2022-12-08T12:03:57;100284.59;;;4.39;100.00
4528;BME280;62320;51.520;6.818;2022-12-08T12:34:42;100273.34;;;4.29;100.00
4528;BME280;62320;51.520;6.818;2022-12-08T12:45:10;100280.28;;;4.37;100.00
4528;BME280;62320;51.520;6.818;2022-12-08T12:55:24;100271.81;;;4.39;100.00
4528;BME280;62320;51.520;6.818;2022-12-08T13:05:28;100281.22;;;4.40;100.00
4528;BME280;62320;51.520;6.818;2022-12-08T13:15:36;100273.47;;;4.37;100.00
4528;BME280;62320;51.520;6.818;2022-12-08T13:35:44;100255.34;;;4.25;100.00
4528;BME280;62320;51.520;6.818;2022-12-08T13:45:48;100252.78;;;4.25;100.00
4528;BME280;62320;51.520;6.818;2022-12-08T13:56:11;100248.53;;;4.24;100.00
4528;BME280;62320;51.520;6.818;2022-12-08T14:06:38;100252.78;;;4.25;100.00
4528;BME280;62320;51.520;6.818;2022-12-08T14:16:54;100243.34;;;4.19;100.00
4528;BME280;62320;51.520;6.818;2022-12-08T14:27:02;100244.16;;;4.18;100.00
4528;BME280;62320;51.520;6.818;2022-12-08T14:37:08;100250.22;;;4.22;100.00
4528;BME280;62320;51.520;6.818;2022-12-08T14:47:17;100247.59;;;4.20;100.00
4528;BME280;62320;51.520;6.818;2022-12-08T14:57:19;100240.78;;;4.19;100.00
4528;BME280;62320;51.520;6.818;2022-12-08T15:07:23;100239.97;;;4.23;100.00
4528;BME280;62320;51.520;6.818;2022-12-08T15:17:33;100245.91;;;4.21;100.00
4528;BME280;62320;51.520;6.818;2022-12-08T15:27:34;100245.00;;;4.17;100.00
4528;BME280;62320;51.520;6.818;2022-12-08T15:37:50;100237.22;;;4.11;100.00
4528;BME280;62320;51.520;6.818;2022-12-08T15:47:51;100243.19;;;4.10;100.00
4528;BME280;62320;51.520;6.818;2022-12-08T15:57:53;100254.22;;;4.08;100.00
4528;BME280;62320;51.520;6.818;2022-12-08T16:08:15;100249.97;;;4.08;100.00
4528;BME280;62320;51.520;6.818;2022-12-08T16:18:37;100252.47;;;4.07;100.00
4528;BME280;62320;51.520;6.818;2022-12-08T16:28:40;100255.09;;;4.10;100.00
4528;BME280;62320;51.520;6.818;2022-12-08T16:38:57;100242.31;;;4.10;100.00
4528;BME280;62320;51.520;6.818;2022-12-08T16:48:59;100245.91;;;4.19;100.00
4528;BME280;62320;51.520;6.818;2022-12-08T16:59:00;100249.31;;;4.20;100.00
4528;BME280;62320;51.520;6.818;2022-12-08T17:09:02;100258.59;;;4.15;100.00
4528;BME280;62320;51.520;6.818;2022-12-08T17:19:04;100249.25;;;4.15;100.00
4528;BME280;62320;51.520;6.818;2022-12-08T17:29:05;100261.97;;;4.14;100.00
4528;BME280;62320;51.520;6.818;2022-12-08T17:39:07;100258.63;;;4.16;100.00
4528;BME280;62320;51.520;6.818;2022-12-08T17:49:20;100252.59;;;4.13;100.00
4528;BME280;62320;51.520;6.818;2022-12-08T17:59:22;100254.28;;;4.11;100.00
4528;BME280;62320;51.520;6.818;2022-12-08T18:09:24;100256.84;;;4.12;100.00
4528;BME280;62320;51.520;6.818;2022-12-08T18:19:25;100256.84;;;4.12;100.00
4528;BME280;62320;51.520;6.818;2022-12-08T18:29:27;100255.13;;;4.11;100.00
4528;BME280;62320;51.520;6.818;2022-12-08T18:39:31;100243.13;;;4.07;100.00
4528;BME280;62320;51.520;6.818;2022-12-08T18:49:32;100239.66;;;4.04;100.00
4528;BME280;62320;51.520;6.818;2022-12-08T18:59:34;100254.06;;;4.00;100.00
4528;BME280;62320;51.520;6.818;2022-12-08T19:09:36;100256.53;;;3.96;100.00
4528;BME280;62320;51.520;6.818;2022-12-08T19:19:38;100264.09;;;3.88;100.00
4528;BME280;62320;51.520;6.818;2022-12-08T19:29:39;100248.69;;;3.85;100.00
4528;BME280;62320;51.520;6.818;2022-12-08T19:39:40;100248.53;;;3.78;100.00
4528;BME280;62320;51.520;6.818;2022-12-08T19:50:01;100250.00;;;3.65;100.00
4528;BME280;62320;51.520;6.818;2022-12-08T20:00:21;100254.81;;;3.50;100.00
4528;BME280;62320;51.520;6.818;2022-12-08T20:10:26;100264.03;;;3.42;100.00
4528;BME280;62320;51.520;6.818;2022-12-08T20:20:28;100276.88;;;3.45;100.00
4528;BME280;62320;51.520;6.818;2022-12-08T20:30:29;100266.59;;;3.43;100.00
4528;BME280;62320;51.520;6.818;2022-12-08T20:40:31;100273.34;;;3.40;100.00
4528;BME280;62320;51.520;6.818;2022-12-08T20:50:32;100269.81;;;3.33;100.00
4528;BME280;62320;51.520;6.818;2022-12-08T21:00:33;100275.75;;;3.32;100.00
4528;BME280;62320;51.520;6.818;2022-12-08T21:10:35;100282.69;;;3.38;100.00
4528;BME280;62320;51.520;6.818;2022-12-08T21:20:44;100282.69;;;3.38;100.00
4528;BME280;62320;51.520;6.818;2022-12-08T21:30:46;100278.47;;;3.40;100.00
4528;BME280;62320;51.520;6.818;2022-12-08T21:40:48;100270.88;;;3.43;100.00
4528;BME280;62320;51.520;6.818;2022-12-08T21:50:50;100269.16;;;3.43;100.00
4528;BME280;62320;51.520;6.818;2022-12-08T22:00:51;100274.44;;;3.51;100.00
4528;BME280;62320;51.520;6.818;2022-12-08T22:10:53;100271.06;;;3.53;100.00
4528;BME280;62320;51.520;6.818;2022-12-08T22:20:54;100265.88;;;3.50;100.00
4528;BME280;62320;51.520;6.818;2022-12-08T22:30:56;100270.09;;;3.47;100.00
4528;BME280;62320;51.520;6.818;2022-12-08T22:40:57;100266.69;;;3.48;100.00
4528;BME280;62320;51.520;6.818;2022-12-08T22:50:59;100267.53;;;3.47;100.00
4528;BME280;62320;51.520;6.818;2022-12-08T23:01:01;100262.44;;;3.48;100.00
4528;BME280;62320;51.520;6.818;2022-12-08T23:11:02;100253.88;;;3.45;100.00
4528;BME280;62320;51.520;6.818;2022-12-08T23:21:10;100259.13;;;3.52;100.00
4528;BME280;62320;51.520;6.818;2022-12-08T23:31:11;100264.13;;;3.46;100.00
4528;BME280;62320;51.520;6.818;2022-12-08T23:41:14;100259.00;;;3.46;100.00
4528;BME280;62320;51.520;6.818;2022-12-08T23:51:16;100256.38;;;3.43;100.00
